Picabo, Idaho
Current Conditions -  °F | °C
As of 6:47 PM on Monday 20 Oct 2014 (Local Time) from KSUN Reporting Station
Scattered Clouds Scattered Clouds  
Wind Chill: 64°   Ceiling: Unl
Heat Index: 64°   Visibility: 10mi
Dew Point: 37°   Wind: 0mph
Humidity: 37%   Direction: NA
Pressure: 29.9"   Gusts: NA
Location:  43.31°N, 114.07°W
Report Text: KSUN 210047Z 00000KT 10SM SCT100 18/03 A2990
Loading
Personal Weather Stations






























Interactive Weather Map
Tropical Storm Tracking
New forecast layout! Learn more

10-Day Weather Forecast

Advertisements
Track Severe Weather on mobile